createdAt,value
2018-05-18T00:00:14.163Z,0.00
2018-05-18T00:01:14.137Z,0.00
2018-05-18T00:02:14.112Z,0.00
2018-05-18T00:03:14.091Z,0.00
2018-05-18T00:04:14.060Z,0.00
2018-05-18T00:05:14.038Z,0.00
2018-05-18T00:06:14.012Z,0.00
2018-05-18T00:07:13.988Z,0.00
2018-05-18T00:08:13.958Z,0.00
2018-05-18T00:09:13.936Z,0.00
2018-05-18T00:10:13.910Z,0.00
2018-05-18T00:11:13.880Z,0.00
2018-05-18T00:12:13.906Z,0.00
2018-05-18T00:13:13.831Z,0.00
2018-05-18T00:14:13.804Z,0.00
2018-05-18T00:15:13.779Z,0.00
2018-05-18T00:16:13.752Z,0.00
2018-05-18T00:17:13.727Z,0.00
2018-05-18T00:18:13.701Z,0.00
2018-05-18T00:19:13.675Z,0.00
2018-05-18T00:20:13.649Z,0.00
2018-05-18T00:21:13.627Z,0.00
2018-05-18T00:22:13.598Z,0.00
2018-05-18T00:23:13.572Z,0.00
2018-05-18T00:24:13.549Z,0.00
2018-05-18T00:25:13.521Z,0.00
2018-05-18T00:26:13.495Z,0.00
2018-05-18T00:27:13.470Z,0.00
2018-05-18T00:28:13.444Z,0.00
2018-05-18T00:29:13.418Z,0.00
2018-05-18T00:30:13.392Z,0.00
2018-05-18T00:31:13.367Z,0.00
2018-05-18T00:32:13.340Z,0.00
2018-05-18T00:33:13.322Z,0.00
2018-05-18T00:34:13.289Z,0.00
2018-05-18T00:35:13.264Z,0.00
2018-05-18T00:36:13.237Z,0.00
2018-05-18T00:37:13.214Z,0.00
2018-05-18T00:38:13.187Z,0.00
2018-05-18T00:39:13.159Z,0.00
2018-05-18T00:40:13.135Z,0.00
2018-05-18T00:41:13.108Z,0.00
2018-05-18T00:42:13.084Z,0.00
2018-05-18T00:43:13.057Z,0.00
2018-05-18T00:44:13.031Z,0.00
2018-05-18T00:45:13.006Z,0.00
2018-05-18T00:46:12.980Z,0.00
2018-05-18T00:47:12.953Z,0.00
2018-05-18T00:48:12.928Z,0.00
2018-05-18T00:49:12.904Z,0.00
2018-05-18T00:50:12.877Z,0.00
2018-05-18T00:51:12.854Z,0.00
2018-05-18T00:52:12.832Z,0.00
2018-05-18T00:53:12.799Z,0.00
2018-05-18T00:54:12.778Z,0.00
2018-05-18T00:55:12.748Z,0.00
2018-05-18T00:56:12.722Z,0.00
2018-05-18T00:57:12.699Z,0.00
2018-05-18T00:58:12.678Z,0.00
2018-05-18T00:59:12.650Z,0.00
2018-05-18T01:00:12.619Z,0.00
2018-05-18T01:01:12.595Z,0.00
2018-05-18T01:02:12.569Z,0.00
2018-05-18T01:03:12.542Z,0.00
2018-05-18T01:04:12.517Z,0.00
2018-05-18T01:05:12.491Z,0.00
2018-05-18T01:06:12.469Z,0.00
2018-05-18T01:07:12.445Z,0.00
2018-05-18T01:08:12.413Z,0.00
2018-05-18T01:09:12.390Z,0.00
2018-05-18T01:10:12.363Z,0.00
2018-05-18T01:11:12.336Z,0.00
2018-05-18T01:12:12.311Z,0.00
2018-05-18T01:13:12.290Z,0.00
2018-05-18T01:14:12.269Z,0.00
2018-05-18T01:15:12.234Z,0.00
2018-05-18T01:16:12.208Z,0.00
2018-05-18T01:17:12.186Z,0.00
2018-05-18T01:18:12.161Z,0.00
2018-05-18T01:19:12.136Z,0.00
2018-05-18T01:20:12.105Z,0.00
2018-05-18T01:21:12.079Z,0.00
2018-05-18T01:22:12.054Z,0.00
2018-05-18T01:23:12.056Z,0.00
2018-05-18T01:24:12.001Z,0.00
2018-05-18T01:25:11.976Z,0.00
2018-05-18T01:26:11.956Z,0.00
2018-05-18T01:27:11.927Z,0.00
2018-05-18T01:28:11.899Z,0.00
2018-05-18T01:29:11.873Z,0.00
2018-05-18T01:30:11.858Z,0.00
2018-05-18T01:31:11.821Z,0.00
2018-05-18T01:32:11.795Z,0.00
2018-05-18T01:33:11.770Z,0.00
2018-05-18T01:34:11.744Z,0.00
2018-05-18T01:35:11.718Z,0.00
2018-05-18T01:36:11.696Z,0.00
2018-05-18T01:37:11.667Z,0.00
2018-05-18T01:38:11.643Z,0.00
2018-05-18T01:39:11.615Z,0.00
2018-05-18T01:40:11.595Z,0.00
2018-05-18T01:41:11.564Z,0.00
2018-05-18T01:42:11.542Z,0.00
2018-05-18T01:43:11.514Z,0.00
2018-05-18T01:44:11.487Z,0.00
2018-05-18T01:45:11.461Z,0.00
2018-05-18T01:46:11.436Z,0.00
2018-05-18T01:47:11.409Z,0.00
2018-05-18T01:48:11.383Z,0.00
2018-05-18T01:49:11.359Z,0.00
2018-05-18T01:50:11.336Z,0.00
2018-05-18T01:51:11.306Z,0.00
2018-05-18T01:52:11.331Z,0.00
2018-05-18T01:53:11.254Z,0.00
2018-05-18T01:54:11.229Z,0.00
2018-05-18T01:55:11.203Z,0.00
2018-05-18T01:56:11.177Z,0.00
2018-05-18T01:57:11.152Z,0.00
2018-05-18T01:58:11.126Z,0.00
2018-05-18T01:59:11.099Z,0.00
2018-05-18T02:00:11.076Z,0.00
2018-05-18T02:01:11.049Z,0.00
2018-05-18T02:02:11.028Z,0.00
2018-05-18T02:03:10.998Z,0.00
2018-05-18T02:04:10.971Z,0.00
2018-05-18T02:05:10.945Z,0.00
2018-05-18T02:06:10.920Z,0.00
2018-05-18T02:07:10.897Z,0.00
2018-05-18T02:08:10.869Z,0.00
2018-05-18T02:09:10.842Z,0.00
2018-05-18T02:10:10.817Z,0.00
2018-05-18T02:11:10.790Z,0.00
2018-05-18T02:12:10.768Z,0.00
2018-05-18T02:13:10.739Z,0.00
2018-05-18T02:14:10.716Z,0.00
2018-05-18T02:15:10.687Z,0.00
2018-05-18T02:16:10.661Z,0.00
2018-05-18T02:17:10.636Z,0.00
2018-05-18T02:18:10.610Z,0.00
2018-05-18T02:19:10.585Z,0.00
2018-05-18T02:20:10.561Z,0.00
2018-05-18T02:21:10.532Z,0.00
2018-05-18T02:22:10.507Z,0.00
2018-05-18T02:23:10.480Z,0.00
2018-05-18T02:24:10.455Z,0.00
2018-05-18T02:25:10.429Z,0.00
2018-05-18T02:26:10.407Z,0.00
2018-05-18T02:27:10.378Z,0.00
2018-05-18T02:28:10.352Z,0.00
2018-05-18T02:29:10.326Z,0.00
2018-05-18T02:30:10.301Z,0.00
2018-05-18T02:31:10.278Z,0.00
2018-05-18T02:32:10.249Z,0.00
2018-05-18T02:33:10.223Z,0.00
2018-05-18T02:34:10.198Z,0.00
2018-05-18T02:35:10.180Z,0.00
2018-05-18T02:36:10.147Z,0.00
2018-05-18T02:37:10.120Z,0.00
2018-05-18T02:38:10.095Z,0.00
2018-05-18T02:39:10.074Z,0.00
2018-05-18T02:40:10.042Z,0.00
2018-05-18T02:41:10.021Z,0.00
2018-05-18T02:42:09.992Z,0.00
2018-05-18T02:43:09.966Z,0.00
2018-05-18T02:44:09.941Z,0.00
2018-05-18T02:45:09.913Z,0.00
2018-05-18T02:46:09.888Z,0.00
2018-05-18T02:47:09.863Z,0.00
2018-05-18T02:48:09.838Z,0.00
2018-05-18T02:49:09.812Z,0.00
2018-05-18T02:50:09.784Z,0.00
2018-05-18T02:51:09.762Z,0.00
2018-05-18T02:52:09.742Z,0.00
2018-05-18T02:53:09.707Z,0.00
2018-05-18T02:54:09.684Z,0.00
2018-05-18T02:55:09.654Z,0.00
2018-05-18T02:56:09.631Z,0.00
2018-05-18T02:57:09.604Z,0.00
2018-05-18T02:58:09.578Z,0.00
2018-05-18T02:59:09.554Z,0.00
2018-05-18T03:00:09.526Z,0.00
2018-05-18T03:01:09.510Z,0.00
2018-05-18T03:02:09.475Z,0.00
2018-05-18T03:03:09.450Z,0.00
2018-05-18T03:04:09.423Z,0.00
2018-05-18T03:05:09.398Z,0.00
2018-05-18T03:06:09.377Z,0.00
2018-05-18T03:07:09.345Z,0.00
2018-05-18T03:08:09.319Z,0.00
2018-05-18T03:09:09.294Z,0.00
2018-05-18T03:10:09.269Z,0.00
2018-05-18T03:11:09.242Z,0.00
2018-05-18T03:12:09.216Z,5.63
2018-05-18T03:13:09.192Z,5.63
2018-05-18T03:14:09.166Z,5.63
2018-05-18T03:15:09.168Z,5.63
2018-05-18T03:16:09.118Z,5.63
2018-05-18T03:17:09.089Z,5.63
2018-05-18T03:18:09.065Z,5.63
2018-05-18T03:19:09.035Z,5.63
2018-05-18T03:20:09.010Z,5.63
2018-05-18T03:21:08.989Z,11.25
2018-05-18T03:22:08.959Z,11.25
2018-05-18T03:23:08.935Z,11.25
2018-05-18T03:24:08.911Z,11.25
2018-05-18T03:25:08.882Z,11.25
2018-05-18T03:26:08.856Z,11.25
2018-05-18T03:27:08.830Z,11.25
2018-05-18T03:28:08.803Z,16.88
2018-05-18T03:29:08.777Z,16.88
2018-05-18T03:30:09.354Z,16.88
2018-05-18T03:31:08.735Z,16.88
2018-05-18T03:32:08.700Z,16.88
2018-05-18T03:33:08.676Z,16.88
2018-05-18T03:34:08.649Z,16.88
2018-05-18T03:35:08.623Z,16.88
2018-05-18T03:36:08.603Z,22.50
2018-05-18T03:37:08.573Z,22.50
2018-05-18T03:38:08.550Z,22.50
2018-05-18T03:39:08.520Z,22.50
2018-05-18T03:40:08.495Z,22.50
2018-05-18T03:41:08.469Z,22.50
2018-05-18T03:42:08.451Z,28.13
2018-05-18T03:43:08.417Z,28.13
2018-05-18T03:44:08.391Z,28.13
2018-05-18T03:45:08.365Z,28.13
2018-05-18T03:46:08.341Z,33.75
2018-05-18T03:47:08.314Z,33.75
2018-05-18T03:48:08.289Z,33.75
2018-05-18T03:49:08.262Z,33.75
2018-05-18T03:50:08.240Z,33.75
2018-05-18T03:51:08.211Z,33.75
2018-05-18T03:52:08.188Z,39.38
2018-05-18T03:53:08.160Z,39.38
2018-05-18T03:54:08.141Z,39.38
2018-05-18T03:55:08.108Z,39.38
2018-05-18T03:56:08.082Z,39.38
2018-05-18T03:57:08.057Z,45.00
2018-05-18T03:58:08.032Z,45.00
2018-05-18T03:59:08.005Z,50.63
2018-05-18T04:00:07.985Z,50.63
2018-05-18T04:01:07.954Z,50.63
2018-05-18T04:02:07.929Z,50.63
2018-05-18T04:03:07.901Z,50.63
2018-05-18T04:04:07.882Z,56.25
2018-05-18T04:05:07.850Z,61.88
2018-05-18T04:06:07.832Z,61.88
2018-05-18T04:07:07.799Z,61.88
2018-05-18T04:11:34.423Z,61.88
2018-05-18T04:12:34.401Z,67.50
2018-05-18T04:13:34.372Z,67.50
2018-05-18T04:14:34.349Z,73.13
2018-05-18T04:15:34.322Z,73.13
2018-05-18T04:16:34.295Z,78.75
2018-05-18T04:17:34.270Z,78.75
2018-05-18T04:18:34.246Z,78.75
2018-05-18T04:19:34.219Z,84.38
2018-05-18T04:20:34.193Z,84.38
2018-05-18T04:21:34.173Z,84.38
2018-05-18T04:22:34.148Z,90.00
2018-05-18T04:23:34.123Z,95.63
2018-05-18T04:24:34.100Z,95.63
2018-05-18T04:25:34.073Z,95.63
2018-05-18T04:26:34.045Z,101.25
2018-05-18T04:27:34.020Z,106.88
2018-05-18T04:28:33.994Z,101.25
2018-05-18T04:29:33.977Z,101.25
2018-05-18T04:30:33.947Z,101.25
2018-05-18T04:31:33.918Z,101.25
2018-05-18T04:32:33.891Z,106.88
2018-05-18T04:33:33.868Z,112.50
2018-05-18T04:34:33.841Z,118.13
2018-05-18T04:35:33.815Z,118.13
2018-05-18T04:36:33.789Z,106.88
2018-05-18T04:37:33.763Z,112.50
2018-05-18T04:38:33.738Z,123.75
2018-05-18T04:39:33.713Z,135.00
2018-05-18T04:40:33.687Z,135.00
2018-05-18T04:41:33.662Z,135.00
2018-05-18T04:42:33.636Z,135.00
2018-05-18T04:43:33.611Z,129.38
2018-05-18T04:44:33.593Z,118.13
2018-05-18T04:45:33.561Z,118.13
2018-05-18T04:46:33.534Z,123.75
2018-05-18T04:47:33.508Z,129.38
2018-05-18T04:48:33.496Z,123.75
2018-05-18T04:49:33.457Z,129.38
2018-05-18T04:50:33.433Z,146.25
2018-05-18T04:51:33.406Z,151.88
2018-05-18T04:52:33.380Z,151.88
2018-05-18T04:53:33.355Z,146.25
2018-05-18T04:54:33.338Z,140.63
2018-05-18T04:55:33.306Z,140.63
2018-05-18T04:56:33.283Z,135.00
2018-05-18T04:57:33.253Z,146.25
2018-05-18T04:58:33.227Z,151.88
2018-05-18T04:59:33.203Z,146.25
2018-05-18T05:00:33.177Z,151.88
2018-05-18T05:01:33.166Z,157.50
2018-05-18T05:02:33.127Z,163.13
2018-05-18T05:03:33.102Z,174.38
2018-05-18T05:04:33.075Z,180.00
2018-05-18T05:05:33.119Z,174.38
2018-05-18T05:06:33.024Z,180.00
2018-05-18T05:07:33.000Z,180.00
2018-05-18T05:08:32.973Z,180.00
2018-05-18T05:09:32.952Z,174.38
2018-05-18T05:10:32.922Z,174.38
2018-05-18T05:11:32.900Z,185.63
2018-05-18T05:12:32.896Z,208.13
2018-05-18T05:13:32.845Z,202.50
2018-05-18T05:14:32.826Z,185.63
2018-05-18T05:15:32.795Z,191.25
2018-05-18T05:16:32.768Z,191.25
2018-05-18T05:17:32.744Z,196.88
2018-05-18T05:18:32.719Z,196.88
2018-05-18T05:19:32.693Z,213.75
2018-05-18T05:20:32.667Z,225.00
2018-05-18T05:21:32.642Z,225.00
2018-05-18T05:22:32.619Z,236.25
2018-05-18T05:23:32.592Z,219.38
2018-05-18T05:24:32.566Z,219.38
2018-05-18T05:25:32.542Z,236.25
2018-05-18T05:26:32.516Z,230.63
2018-05-18T05:27:32.491Z,225.00
2018-05-18T05:28:32.469Z,219.38
2018-05-18T05:29:32.440Z,236.25
2018-05-18T05:30:32.447Z,236.25
2018-05-18T05:31:32.391Z,253.13
2018-05-18T05:32:32.441Z,275.63
2018-05-18T05:33:32.339Z,270.00
2018-05-18T05:34:32.317Z,253.13
2018-05-18T05:35:32.292Z,247.50
2018-05-18T05:36:32.267Z,230.63
2018-05-18T05:37:32.242Z,230.63
2018-05-18T05:38:32.214Z,236.25
2018-05-18T05:39:32.191Z,230.63
2018-05-18T05:40:32.163Z,230.63
2018-05-18T05:41:32.139Z,219.38
2018-05-18T05:42:32.113Z,213.75
2018-05-18T05:43:32.088Z,230.63
2018-05-18T05:44:32.062Z,230.63
2018-05-18T05:45:32.037Z,247.50
2018-05-18T05:46:32.015Z,241.88
2018-05-18T05:47:31.991Z,230.63
2018-05-18T05:48:31.962Z,247.50
2018-05-18T05:49:31.941Z,270.00
2018-05-18T05:50:31.912Z,264.38
2018-05-18T05:51:31.887Z,253.13
2018-05-18T05:52:31.863Z,258.75
2018-05-18T05:53:31.836Z,286.88
2018-05-18T05:54:31.812Z,292.50
2018-05-18T05:55:31.787Z,275.63
2018-05-18T05:56:31.767Z,270.00
2018-05-18T05:57:31.736Z,258.75
2018-05-18T05:58:31.748Z,253.13
2018-05-18T05:59:31.689Z,258.75
2018-05-18T06:00:31.688Z,281.25
2018-05-18T06:01:31.636Z,298.13
2018-05-18T06:02:31.612Z,303.75
2018-05-18T06:03:31.586Z,281.25
2018-05-18T06:04:31.577Z,264.38
2018-05-18T06:05:31.536Z,253.13
2018-05-18T06:06:31.511Z,264.38
2018-05-18T06:07:31.486Z,275.63
2018-05-18T06:08:31.460Z,264.38
2018-05-18T06:09:31.435Z,258.75
2018-05-18T06:10:31.410Z,258.75
2018-05-18T06:11:31.388Z,264.38
2018-05-18T06:12:31.360Z,270.00
2018-05-18T06:13:31.338Z,281.25
2018-05-18T06:14:31.314Z,281.25
2018-05-18T06:15:31.287Z,275.63
2018-05-18T06:16:31.259Z,270.00
2018-05-18T06:17:31.234Z,275.63
2018-05-18T06:18:31.209Z,286.88
2018-05-18T06:19:31.206Z,292.50
2018-05-18T06:20:31.164Z,298.13
2018-05-18T06:21:31.134Z,303.75
2018-05-18T06:22:31.110Z,303.75
2018-05-18T06:23:31.085Z,315.00
2018-05-18T06:24:31.058Z,320.63
2018-05-18T06:25:31.033Z,320.63
2018-05-18T06:26:31.008Z,320.63
2018-05-18T06:27:30.983Z,326.25
2018-05-18T06:28:30.957Z,337.50
2018-05-18T06:29:30.956Z,331.88
2018-05-18T06:30:30.907Z,348.75
2018-05-18T06:31:30.882Z,354.38
2018-05-18T06:32:30.856Z,348.75
2018-05-18T06:33:30.832Z,354.38
2018-05-18T06:34:30.889Z,365.63
2018-05-18T06:35:30.783Z,371.25
2018-05-18T06:36:30.760Z,354.38
2018-05-18T06:37:30.734Z,354.38
2018-05-18T06:38:30.713Z,365.63
2018-05-18T06:39:30.683Z,376.88
2018-05-18T06:40:30.661Z,354.38
2018-05-18T06:41:30.633Z,337.50
2018-05-18T06:42:30.606Z,343.13
2018-05-18T06:43:30.581Z,354.38
2018-05-18T06:44:30.558Z,365.63
2018-05-18T06:45:30.539Z,376.88
2018-05-18T06:46:30.507Z,376.88
2018-05-18T06:47:30.480Z,376.88
2018-05-18T06:48:30.465Z,376.88
2018-05-18T06:49:30.430Z,388.13
2018-05-18T06:50:30.406Z,393.75
2018-05-18T06:51:30.381Z,393.75
2018-05-18T06:52:30.387Z,388.13
2018-05-18T06:53:30.331Z,382.50
2018-05-18T06:54:30.311Z,365.63
2018-05-18T06:55:30.279Z,376.88
2018-05-18T06:56:30.261Z,382.50
2018-05-18T06:57:30.229Z,382.50
2018-05-18T06:58:30.209Z,388.13
2018-05-18T06:59:30.179Z,393.75
2018-05-18T07:00:30.156Z,393.75
2018-05-18T07:01:30.128Z,393.75
2018-05-18T07:02:30.136Z,393.75
2018-05-18T07:03:30.094Z,410.63
2018-05-18T07:04:30.071Z,438.75
2018-05-18T07:05:30.032Z,433.13
2018-05-18T07:06:30.008Z,444.38
2018-05-18T07:07:29.979Z,455.63
2018-05-18T07:08:29.954Z,461.25
2018-05-18T07:09:29.933Z,483.75
2018-05-18T07:10:29.995Z,478.13
2018-05-18T07:11:29.879Z,472.50
2018-05-18T07:12:29.854Z,472.50
2018-05-18T07:13:29.901Z,483.75
2018-05-18T07:14:29.805Z,511.88
2018-05-18T07:15:29.779Z,517.50
2018-05-18T07:16:29.784Z,528.75
2018-05-18T07:17:29.729Z,528.75
2018-05-18T07:18:29.704Z,511.88
2018-05-18T07:19:29.706Z,500.63
2018-05-18T07:20:29.654Z,495.00
2018-05-18T07:21:29.636Z,495.00
2018-05-18T07:22:29.614Z,511.88
2018-05-18T07:23:29.583Z,517.50
2018-05-18T07:24:29.555Z,517.50
2018-05-18T07:25:29.530Z,534.38
2018-05-18T07:26:29.507Z,545.63
2018-05-18T07:27:29.481Z,540.00
2018-05-18T07:28:29.456Z,556.88
2018-05-18T07:29:29.439Z,596.25
2018-05-18T07:30:29.435Z,607.50
2018-05-18T07:31:29.388Z,596.25
2018-05-18T07:32:29.357Z,579.38
2018-05-18T07:33:29.382Z,596.25
2018-05-18T07:34:29.310Z,596.25
2018-05-18T07:35:29.283Z,613.13
2018-05-18T07:36:29.258Z,635.63
2018-05-18T07:37:29.233Z,646.88
2018-05-18T07:38:29.209Z,658.13
2018-05-18T07:39:29.188Z,675.00
2018-05-18T07:40:29.173Z,658.13
2018-05-18T07:41:29.134Z,663.75
2018-05-18T07:42:29.111Z,703.13
2018-05-18T07:43:29.087Z,691.88
2018-05-18T07:44:29.068Z,686.25
2018-05-18T07:45:29.039Z,691.88
2018-05-18T07:46:29.017Z,680.63
2018-05-18T07:47:28.990Z,663.75
2018-05-18T07:48:28.962Z,680.63
2018-05-18T07:49:28.946Z,675.00
2018-05-18T07:50:28.920Z,663.75
2018-05-18T07:51:28.893Z,669.38
2018-05-18T07:52:28.874Z,680.63
2018-05-18T07:53:28.850Z,675.00
2018-05-18T07:54:28.817Z,675.00
2018-05-18T07:55:28.793Z,675.00
2018-05-18T07:56:28.768Z,675.00
2018-05-18T07:57:28.749Z,680.63
2018-05-18T07:58:28.721Z,680.63
2018-05-18T07:59:28.742Z,691.88
2018-05-18T08:00:28.675Z,714.38
2018-05-18T08:01:28.648Z,708.75
2018-05-18T08:02:28.621Z,742.50
2018-05-18T08:03:28.600Z,765.00
2018-05-18T08:04:28.577Z,765.00
2018-05-18T08:05:28.565Z,798.75
2018-05-18T08:06:28.524Z,815.63
2018-05-18T08:07:28.504Z,815.63
2018-05-18T08:08:28.475Z,770.63
2018-05-18T08:09:28.451Z,793.13
2018-05-18T08:10:28.427Z,821.25
2018-05-18T08:11:28.403Z,838.13
2018-05-18T08:12:28.378Z,860.63
2018-05-18T08:13:28.355Z,894.38
2018-05-18T08:14:28.330Z,922.50
2018-05-18T08:15:28.306Z,950.63
2018-05-18T08:16:28.284Z,939.38
2018-05-18T08:17:28.257Z,939.38
2018-05-18T08:18:28.234Z,922.50
2018-05-18T08:19:28.210Z,961.88
2018-05-18T08:20:28.186Z,1001.25
2018-05-18T08:21:28.176Z,1012.50
2018-05-18T08:22:28.138Z,1001.25
2018-05-18T08:23:28.120Z,950.63
2018-05-18T08:24:28.092Z,984.38
2018-05-18T08:25:28.073Z,1001.25
2018-05-18T08:26:28.045Z,950.63
2018-05-18T08:27:28.019Z,950.63
2018-05-18T08:28:27.995Z,961.88
2018-05-18T08:29:27.973Z,967.50
2018-05-18T08:30:27.968Z,945.00
2018-05-18T08:31:27.952Z,905.63
2018-05-18T08:32:27.932Z,900.00
2018-05-18T08:33:27.884Z,832.50
2018-05-18T08:34:27.872Z,804.38
2018-05-18T08:35:27.830Z,866.25
2018-05-18T08:36:27.812Z,860.63
2018-05-18T08:37:27.785Z,843.75
2018-05-18T08:38:27.812Z,838.13
2018-05-18T08:39:27.745Z,843.75
2018-05-18T08:40:27.714Z,849.38
2018-05-18T08:41:27.695Z,838.13
2018-05-18T08:42:27.665Z,832.50
2018-05-18T08:43:27.641Z,826.88
2018-05-18T08:44:27.722Z,826.88
2018-05-18T08:45:27.593Z,849.38
2018-05-18T08:46:27.573Z,888.75
2018-05-18T08:47:27.546Z,900.00
2018-05-18T08:48:27.521Z,911.25
2018-05-18T08:49:27.497Z,933.75
2018-05-18T08:50:27.510Z,945.00
2018-05-18T08:51:27.457Z,990.00
2018-05-18T08:52:27.427Z,1018.13
2018-05-18T08:53:27.403Z,1040.63
2018-05-18T08:54:27.389Z,1051.88
2018-05-18T08:55:27.361Z,1046.25
2018-05-18T08:56:27.336Z,1018.13
2018-05-18T08:57:27.308Z,973.13
2018-05-18T08:58:27.292Z,967.50
2018-05-18T08:59:27.268Z,978.75
2018-05-18T09:00:27.238Z,990.00
2018-05-18T09:01:27.214Z,1018.13
2018-05-18T09:02:27.197Z,1046.25
2018-05-18T09:03:27.168Z,1074.38
2018-05-18T09:04:27.143Z,1113.75
2018-05-18T09:05:27.128Z,1102.50
2018-05-18T09:06:27.120Z,1113.75
2018-05-18T09:07:27.073Z,1164.38
2018-05-18T09:08:27.057Z,1175.63
2018-05-18T09:09:27.028Z,1192.50
2018-05-18T09:10:27.003Z,1153.13
2018-05-18T09:11:26.980Z,1091.25
2018-05-18T09:12:26.957Z,1080.00
2018-05-18T09:13:26.934Z,1057.50
2018-05-18T09:14:26.916Z,1006.88
2018-05-18T09:15:26.891Z,995.63
2018-05-18T09:16:26.863Z,1023.75
2018-05-18T09:17:26.840Z,1063.13
2018-05-18T09:18:26.817Z,1130.63
2018-05-18T09:19:26.796Z,1192.50
2018-05-18T09:20:26.771Z,1226.25
2018-05-18T09:21:26.749Z,1181.25
2018-05-18T09:22:26.725Z,1108.13
2018-05-18T09:23:26.702Z,1063.13
2018-05-18T09:24:26.681Z,1080.00
2018-05-18T09:25:26.655Z,1068.75
2018-05-18T09:26:26.666Z,1029.38
2018-05-18T09:27:26.617Z,1029.38
2018-05-18T09:28:26.586Z,1023.75
2018-05-18T09:29:26.563Z,1023.75
2018-05-18T09:30:26.577Z,1040.63
2018-05-18T09:31:26.522Z,1046.25
2018-05-18T09:32:26.494Z,1018.13
2018-05-18T09:33:26.476Z,1001.25
2018-05-18T09:34:26.450Z,990.00
2018-05-18T09:35:26.426Z,990.00
2018-05-18T09:36:26.403Z,1001.25
2018-05-18T09:37:26.398Z,1012.50
2018-05-18T09:38:26.368Z,1012.50
2018-05-18T09:39:26.336Z,1006.88
2018-05-18T09:40:26.314Z,978.75
2018-05-18T09:41:26.286Z,984.38
2018-05-18T09:42:26.264Z,1012.50
2018-05-18T09:43:26.243Z,1040.63
2018-05-18T09:44:26.221Z,1029.38
2018-05-18T09:45:26.209Z,1023.75
2018-05-18T09:46:26.170Z,1029.38
2018-05-18T09:47:26.151Z,1057.50
2018-05-18T09:48:26.123Z,1108.13
2018-05-18T09:49:26.102Z,1175.63
2018-05-18T09:50:26.086Z,1248.75
2018-05-18T09:51:26.064Z,1299.38
2018-05-18T09:52:26.033Z,1361.25
2018-05-18T09:53:26.013Z,1372.50
2018-05-18T09:54:26.361Z,1288.13
2018-05-18T09:55:26.110Z,1209.38
2018-05-18T09:56:25.938Z,1226.25
2018-05-18T09:57:25.925Z,1265.63
2018-05-18T09:58:25.897Z,1260.00
2018-05-18T09:59:25.871Z,1248.75
2018-05-18T10:00:25.847Z,1254.38
2018-05-18T10:01:25.825Z,1254.38
2018-05-18T10:02:25.802Z,1276.88
2018-05-18T10:03:25.786Z,1271.25
2018-05-18T10:04:25.761Z,1248.75
2018-05-18T10:05:25.735Z,1226.25
2018-05-18T10:06:25.712Z,1203.75
2018-05-18T10:07:25.697Z,1192.50
2018-05-18T10:08:25.668Z,1198.13
2018-05-18T10:09:25.667Z,1215.00
2018-05-18T10:10:25.622Z,1192.50
2018-05-18T10:11:25.599Z,1153.13
2018-05-18T10:12:25.589Z,1130.63
2018-05-18T10:13:25.562Z,1136.25
2018-05-18T10:14:25.552Z,1170.00
2018-05-18T10:15:25.509Z,1198.13
2018-05-18T10:16:25.486Z,1170.00
2018-05-18T10:17:25.464Z,1153.13
2018-05-18T10:18:25.465Z,1158.75
2018-05-18T10:19:25.420Z,1164.38
2018-05-18T10:20:25.396Z,1164.38
2018-05-18T10:21:25.375Z,1175.63
2018-05-18T10:22:25.352Z,1186.88
2018-05-18T10:23:25.329Z,1181.25
2018-05-18T10:24:25.306Z,1153.13
2018-05-18T10:25:25.284Z,1153.13
2018-05-18T10:26:25.262Z,1158.75
2018-05-18T10:27:25.241Z,1164.38
2018-05-18T10:28:25.231Z,1175.63
2018-05-18T10:29:25.195Z,1170.00
2018-05-18T10:30:25.172Z,1170.00
2018-05-18T10:31:25.156Z,1130.63
2018-05-18T10:32:25.129Z,1096.88
2018-05-18T10:33:25.103Z,1113.75
2018-05-18T10:34:25.083Z,1108.13
2018-05-18T10:35:25.063Z,1085.63
2018-05-18T10:36:25.035Z,1051.88
2018-05-18T10:37:25.015Z,1035.00
2018-05-18T10:38:25.002Z,1046.25
2018-05-18T10:39:24.977Z,1085.63
2018-05-18T10:40:24.947Z,1119.38
2018-05-18T10:41:24.921Z,1130.63
2018-05-18T10:42:24.903Z,1181.25
2018-05-18T10:43:24.884Z,1215.00
2018-05-18T10:44:24.866Z,1192.50
2018-05-18T10:45:24.868Z,1192.50
2018-05-18T10:46:24.808Z,1220.63
2018-05-18T10:47:24.785Z,1271.25
2018-05-18T10:48:24.762Z,1288.13
2018-05-18T10:49:24.743Z,1243.13
2018-05-18T10:50:24.726Z,1209.38
2018-05-18T10:51:24.694Z,1192.50
2018-05-18T10:52:24.671Z,1147.50
2018-05-18T10:53:24.649Z,1153.13
2018-05-18T10:54:24.626Z,1147.50
2018-05-18T10:55:24.604Z,1136.25
2018-05-18T10:56:24.589Z,1125.00
2018-05-18T10:57:24.557Z,1125.00
2018-05-18T10:58:24.540Z,1130.63
2018-05-18T10:59:24.523Z,1153.13
2018-05-18T11:00:24.491Z,1170.00
2018-05-18T11:01:24.468Z,1170.00
2018-05-18T11:02:24.444Z,1181.25
2018-05-18T11:03:24.422Z,1215.00
2018-05-18T11:04:24.398Z,1209.38
2018-05-18T11:05:24.391Z,1125.00
2018-05-18T11:06:24.353Z,1046.25
2018-05-18T11:07:24.331Z,1012.50
2018-05-18T11:08:24.310Z,973.13
2018-05-18T11:09:24.289Z,945.00
2018-05-18T11:10:24.263Z,928.13
2018-05-18T11:11:24.244Z,933.75
2018-05-18T11:12:24.251Z,956.25
2018-05-18T11:13:24.203Z,990.00
2018-05-18T11:14:24.174Z,1023.75
2018-05-18T11:15:24.157Z,1040.63
2018-05-18T11:16:24.135Z,1057.50
2018-05-18T11:17:24.105Z,1085.63
2018-05-18T11:18:24.095Z,1096.88
2018-05-18T11:19:24.060Z,1130.63
2018-05-18T11:20:24.036Z,1158.75
2018-05-18T11:21:24.014Z,1203.75
2018-05-18T11:22:23.992Z,1243.13
2018-05-18T11:23:23.985Z,1288.13
2018-05-18T11:24:23.948Z,1293.75
2018-05-18T11:25:23.924Z,1271.25
2018-05-18T11:26:23.951Z,1254.38
2018-05-18T11:27:23.885Z,1265.63
2018-05-18T11:28:23.868Z,1265.63
2018-05-18T11:29:23.842Z,1265.63
2018-05-18T11:30:23.813Z,1231.88
2018-05-18T11:31:23.793Z,1175.63
2018-05-18T11:32:23.770Z,1130.63
2018-05-18T11:33:23.749Z,1108.13
2018-05-18T11:34:23.727Z,1102.50
2018-05-18T11:35:23.701Z,1102.50
2018-05-18T11:36:23.678Z,1096.88
2018-05-18T11:37:23.658Z,1102.50
2018-05-18T11:38:23.661Z,1119.38
2018-05-18T11:39:23.612Z,1141.88
2018-05-18T11:40:23.589Z,1181.25
2018-05-18T11:41:23.566Z,1271.25
2018-05-18T11:42:23.545Z,1321.88
2018-05-18T11:43:23.522Z,1288.13
2018-05-18T11:44:23.501Z,1226.25
2018-05-18T11:45:23.480Z,1186.88
2018-05-18T11:46:23.455Z,1181.25
2018-05-18T11:47:23.436Z,1170.00
2018-05-18T11:48:23.410Z,1136.25
2018-05-18T11:49:23.386Z,1130.63
2018-05-18T11:50:23.372Z,1125.00
2018-05-18T11:51:23.341Z,1130.63
2018-05-18T11:52:23.330Z,1153.13
2018-05-18T11:53:23.295Z,1198.13
2018-05-18T11:54:23.272Z,1198.13
2018-05-18T11:55:23.262Z,1158.75
2018-05-18T11:56:23.247Z,1147.50
2018-05-18T11:57:23.207Z,1141.88
2018-05-18T11:58:23.186Z,1136.25
2018-05-18T11:59:23.159Z,1113.75
2018-05-18T12:00:23.185Z,1113.75
2018-05-18T12:01:23.113Z,1136.25
2018-05-18T12:02:23.117Z,1130.63
2018-05-18T12:03:23.077Z,1113.75
2018-05-18T12:04:23.054Z,1130.63
2018-05-18T12:05:23.022Z,1147.50
2018-05-18T12:06:23.000Z,1170.00
2018-05-18T12:07:22.981Z,1226.25
2018-05-18T12:08:22.960Z,1282.50
2018-05-18T12:09:22.969Z,1293.75
2018-05-18T12:10:22.950Z,1299.38
2018-05-18T12:11:22.927Z,1350.00
2018-05-18T12:12:22.954Z,1361.25
2018-05-18T12:13:22.846Z,1400.63
2018-05-18T12:14:22.819Z,1434.38
2018-05-18T12:15:22.822Z,1462.50
2018-05-18T12:16:22.772Z,1490.63
2018-05-18T12:17:22.750Z,1496.25
2018-05-18T12:18:22.728Z,1535.63
2018-05-18T12:19:22.705Z,1586.25
2018-05-18T12:20:22.718Z,1580.63
2018-05-18T12:21:22.676Z,1546.88
2018-05-18T12:22:22.676Z,1569.38
2018-05-18T12:23:22.616Z,1552.50
2018-05-18T12:24:22.698Z,1485.00
2018-05-18T12:25:22.571Z,1434.38
2018-05-18T12:26:22.562Z,1468.13
2018-05-18T12:27:22.528Z,1479.38
2018-05-18T12:28:22.505Z,1445.63
2018-05-18T12:29:22.686Z,1406.25
2018-05-18T12:30:22.664Z,1366.88
2018-05-18T12:31:22.646Z,1310.63
2018-05-18T12:32:22.440Z,1276.88
2018-05-18T12:33:22.400Z,1276.88
2018-05-18T12:34:22.406Z,1299.38
2018-05-18T12:35:22.354Z,1276.88
2018-05-18T12:36:22.332Z,1243.13
2018-05-18T12:37:22.315Z,1226.25
2018-05-18T12:38:22.364Z,1220.63
2018-05-18T12:39:22.266Z,1226.25